createdAt,value
2019-01-20T00:02:17.518Z,100218.16
2019-01-20T00:04:48.885Z,100223.72
2019-01-20T00:07:20.260Z,100218.27
2019-01-20T00:09:52.460Z,100219.45
2019-01-20T00:12:24.020Z,100223.92
2019-01-20T00:14:55.517Z,100217.47
2019-01-20T00:17:26.898Z,100218.75
2019-01-20T00:19:58.337Z,100215.98
2019-01-20T00:22:29.703Z,100215.28
2019-01-20T00:25:01.281Z,100219.45
2019-01-20T00:27:32.869Z,100210.52
2019-01-20T00:30:07.712Z,100211.52
2019-01-20T00:32:39.331Z,100215.39
2019-01-20T00:35:11.045Z,100211.61
2019-01-20T00:37:42.540Z,100208.94
2019-01-20T00:40:16.678Z,100212.51
2019-01-20T00:46:35.842Z,100208.04
2019-01-20T00:49:07.245Z,100200.89
2019-01-20T00:51:38.898Z,100201.39
2019-01-20T00:54:10.700Z,100202.77
2019-01-20T00:56:42.130Z,100201.98
2019-01-20T00:59:13.454Z,100201.29
2019-01-20T01:01:45.132Z,100200.80
2019-01-20T01:04:16.588Z,100201.78
2019-01-20T01:06:48.295Z,100202.09
2019-01-20T01:09:20.830Z,100198.81
2019-01-20T01:11:52.457Z,100201.19
2019-01-20T01:14:23.921Z,100205.27
2019-01-20T01:16:55.529Z,100204.46
2019-01-20T01:19:26.963Z,100203.95
2019-01-20T01:21:58.392Z,100205.16
2019-01-20T01:24:29.859Z,100204.66
2019-01-20T01:27:01.406Z,100207.23
2019-01-20T01:29:32.783Z,100216.95
2019-01-20T01:32:04.378Z,100207.44
2019-01-20T01:34:35.775Z,100218.16
2019-01-20T01:37:07.344Z,100214.78
2019-01-20T01:39:38.853Z,100216.06
2019-01-20T01:42:10.484Z,100212.00
2019-01-20T01:44:42.107Z,100220.55
2019-01-20T01:47:13.541Z,100220.24
2019-01-20T01:49:44.986Z,100221.34
2019-01-20T01:52:16.420Z,100222.83
2019-01-20T01:54:47.936Z,100223.42
2019-01-20T01:57:19.355Z,100226.20
2019-01-20T01:59:50.708Z,100222.73
2019-01-20T02:02:22.222Z,100218.62
2019-01-20T02:04:53.659Z,100224.69
2019-01-20T02:07:25.207Z,100220.82
2019-01-20T02:09:56.667Z,100218.25
2019-01-20T02:12:28.168Z,100219.05
2019-01-20T02:14:59.665Z,100223.91
2019-01-20T02:17:31.221Z,100224.98
2019-01-20T02:20:10.476Z,100222.21
2019-01-20T02:22:42.143Z,100221.03
2019-01-20T02:25:14.638Z,100219.72
2019-01-20T02:27:46.231Z,100211.88
2019-01-20T02:30:27.763Z,100216.34
2019-01-20T02:32:59.265Z,100216.23
2019-01-20T02:35:30.777Z,100213.05
2019-01-20T02:38:02.287Z,100218.41
2019-01-20T02:40:33.725Z,100216.80
2019-01-20T02:43:05.428Z,100215.61
2019-01-20T02:45:36.869Z,100211.46
2019-01-20T02:48:08.406Z,100209.42
2019-01-20T02:50:39.893Z,100209.36
2019-01-20T02:53:12.439Z,100205.73
2019-01-20T02:55:43.887Z,100205.67
2019-01-20T02:58:15.257Z,100210.34
2019-01-20T03:00:46.729Z,100210.86
2019-01-20T03:03:18.350Z,100213.25
2019-01-20T03:05:49.900Z,100213.63
2019-01-20T03:08:21.398Z,100213.33
2019-01-20T03:10:52.920Z,100215.91
2019-01-20T03:13:24.373Z,100215.72
2019-01-20T03:15:55.880Z,100206.39
2019-01-20T03:18:27.549Z,100215.92
2019-01-20T03:20:59.751Z,100213.34
2019-01-20T03:23:31.250Z,100208.58
2019-01-20T03:26:02.639Z,100212.64
2019-01-20T03:28:34.090Z,100214.03
2019-01-20T03:31:05.671Z,100205.88
2019-01-20T03:33:37.279Z,100206.70
2019-01-20T03:36:09.023Z,100205.50
2019-01-20T03:38:40.622Z,100203.31
2019-01-20T03:41:12.200Z,100206.56
2019-01-20T03:43:44.933Z,100207.27
2019-01-20T03:46:16.490Z,100207.09
2019-01-20T03:48:47.860Z,100207.28
2019-01-20T03:51:19.366Z,100209.56
2019-01-20T03:53:50.816Z,100206.77
2019-01-20T03:56:22.221Z,100210.66
2019-01-20T03:58:53.630Z,100211.16
2019-01-20T04:01:25.325Z,100211.33
2019-01-20T04:03:56.929Z,100212.12
2019-01-20T04:06:28.453Z,100211.95
2019-01-20T04:08:59.994Z,100214.73
2019-01-20T04:11:31.549Z,100213.16
2019-01-20T04:14:03.151Z,100205.50
2019-01-20T04:16:34.647Z,100205.18
2019-01-20T04:19:06.294Z,100203.70
2019-01-20T04:21:37.781Z,100204.19
2019-01-20T04:24:09.357Z,100200.33
2019-01-20T04:26:40.787Z,100196.04
2019-01-20T04:29:12.215Z,100190.78
2019-01-20T04:31:43.619Z,100191.97
2019-01-20T04:34:14.976Z,100191.69
2019-01-20T04:36:46.374Z,100197.45
2019-01-20T04:39:17.747Z,100196.55
2019-01-20T04:41:49.473Z,100194.55
2019-01-20T04:44:20.861Z,100194.37
2019-01-20T04:46:53.538Z,100188.56
2019-01-20T04:49:24.953Z,100184.73
2019-01-20T04:51:56.701Z,100183.88
2019-01-20T04:54:28.135Z,100184.49
2019-01-20T04:56:59.662Z,100189.63
2019-01-20T04:59:31.445Z,100193.22
2019-01-20T05:02:03.253Z,100194.48
2019-01-20T05:04:34.820Z,100192.87
2019-01-20T05:07:07.596Z,100202.00
2019-01-20T05:09:39.390Z,100196.72
2019-01-20T05:12:12.905Z,100200.08
2019-01-20T05:14:44.671Z,100202.12
2019-01-20T05:17:16.242Z,100202.09
2019-01-20T05:19:47.809Z,100198.81
2019-01-20T05:22:19.391Z,100195.77
2019-01-20T05:24:50.876Z,100197.27
2019-01-20T05:27:38.820Z,100205.73
2019-01-20T05:30:17.999Z,100207.81
2019-01-20T05:32:49.580Z,100207.41
2019-01-20T05:35:21.265Z,100201.17
2019-01-20T05:37:52.830Z,100205.53
2019-01-20T05:40:33.148Z,100202.82
2019-01-20T05:43:04.807Z,100208.09
2019-01-20T05:45:44.873Z,100209.09
2019-01-20T05:48:16.315Z,100210.50
2019-01-20T05:50:47.710Z,100205.45
2019-01-20T05:53:19.256Z,100209.62
2019-01-20T05:56:00.034Z,100213.19
2019-01-20T05:58:31.481Z,100210.12
2019-01-20T06:01:03.027Z,100208.83
2019-01-20T06:03:34.367Z,100212.90
2019-01-20T06:06:06.177Z,100211.52
2019-01-20T06:08:37.619Z,100213.20
2019-01-20T06:11:09.020Z,100216.28
2019-01-20T06:13:40.525Z,100217.47
2019-01-20T06:16:12.038Z,100217.56
2019-01-20T06:18:43.473Z,100226.39
2019-01-20T06:21:15.145Z,100231.35
2019-01-20T06:23:46.667Z,100235.12
2019-01-20T06:26:18.077Z,100240.67
2019-01-20T06:28:49.613Z,100236.81
2019-01-20T06:31:20.978Z,100244.75
2019-01-20T06:33:52.726Z,100241.86
2019-01-20T06:36:24.366Z,100239.38
2019-01-20T06:38:55.949Z,100242.76
2019-01-20T06:41:27.521Z,100240.67
2019-01-20T06:43:58.923Z,100241.73
2019-01-20T06:46:30.390Z,100245.22
2019-01-20T06:49:01.938Z,100243.92
2019-01-20T06:51:33.486Z,100245.50
2019-01-20T06:54:05.185Z,100248.11
2019-01-20T06:56:36.940Z,100251.88
2019-01-20T06:59:08.396Z,100255.15
2019-01-20T07:01:39.830Z,100257.83
2019-01-20T07:04:12.230Z,100262.40
2019-01-20T07:06:43.762Z,100259.92
2019-01-20T07:09:15.456Z,100267.67
2019-01-20T07:11:47.059Z,100267.98
2019-01-20T07:14:18.465Z,100274.03
2019-01-20T07:16:50.126Z,100274.90
2019-01-20T07:19:21.590Z,100274.97
2019-01-20T07:21:55.087Z,100278.14
2019-01-20T07:24:26.901Z,100275.66
2019-01-20T07:26:58.402Z,100281.20
2019-01-20T07:29:29.842Z,100284.96
2019-01-20T07:32:01.209Z,100286.95
2019-01-20T07:34:32.568Z,100290.92
2019-01-20T07:37:04.347Z,100292.02
2019-01-20T07:39:39.032Z,100295.86
2019-01-20T07:42:10.741Z,100294.25
2019-01-20T07:44:42.316Z,100298.31
2019-01-20T07:47:14.375Z,100308.94
2019-01-20T07:49:45.939Z,100308.83
2019-01-20T07:52:17.393Z,100315.09
2019-01-20T07:55:07.618Z,100312.30
2019-01-20T07:57:39.248Z,100316.27
2019-01-20T08:00:20.719Z,100327.85
2019-01-20T08:02:52.371Z,100328.75
2019-01-20T08:05:23.814Z,100337.72
2019-01-20T08:07:55.514Z,100337.03
2019-01-20T08:10:28.721Z,100338.53
2019-01-20T08:13:00.274Z,100344.00
2019-01-20T08:15:31.726Z,100347.69
2019-01-20T08:18:03.235Z,100347.58
2019-01-20T08:20:34.625Z,100349.16
2019-01-20T08:23:06.365Z,100351.45
2019-01-20T08:25:37.803Z,100359.71
2019-01-20T08:28:09.236Z,100362.30
2019-01-20T08:30:40.764Z,100364.27
2019-01-20T08:33:13.177Z,100365.95
2019-01-20T08:35:44.927Z,100369.81
2019-01-20T08:38:16.588Z,100372.81
2019-01-20T08:40:47.961Z,100375.71
2019-01-20T08:43:19.390Z,100379.39
2019-01-20T08:46:01.368Z,100383.97
2019-01-20T08:48:32.879Z,100379.92
2019-01-20T08:51:04.354Z,100385.70
2019-01-20T08:53:36.124Z,100380.76
2019-01-20T08:56:10.437Z,100377.31
2019-01-20T08:58:43.038Z,100384.66
2019-01-20T09:01:14.703Z,100387.56
2019-01-20T09:03:50.200Z,100385.67
2019-01-20T09:06:31.311Z,100387.86
2019-01-20T09:09:18.738Z,100393.63
2019-01-20T09:11:42.117Z,100395.82
2019-01-20T09:14:15.244Z,100389.07
2019-01-20T09:16:55.034Z,100389.57
2019-01-20T09:19:26.649Z,100390.77
2019-01-20T09:21:58.205Z,100399.34
2019-01-20T09:24:29.759Z,100395.77
2019-01-20T09:27:05.446Z,100392.98
2019-01-20T09:29:36.976Z,100390.80
2019-01-20T09:32:13.254Z,100397.16
2019-01-20T09:34:46.283Z,100401.42
2019-01-20T09:37:22.114Z,100406.30
2019-01-20T09:40:02.332Z,100407.88
2019-01-20T09:42:33.822Z,100412.45
2019-01-20T09:45:13.796Z,100411.35
2019-01-20T09:47:48.214Z,100414.53
2019-01-20T09:50:40.353Z,100416.11
2019-01-20T09:53:11.935Z,100419.38
2019-01-20T09:55:44.983Z,100424.84
2019-01-20T09:58:20.985Z,100422.45
2019-01-20T10:00:58.646Z,100426.83
2019-01-20T10:03:30.092Z,100430.80
2019-01-20T10:06:04.976Z,100431.79
2019-01-20T10:08:42.528Z,100434.97
2019-01-20T10:11:14.351Z,100434.85
2019-01-20T10:13:46.042Z,100429.07
2019-01-20T10:16:17.726Z,100432.75
2019-01-20T10:18:49.250Z,100436.11
2019-01-20T10:21:21.266Z,100439.00
2019-01-20T10:23:54.839Z,100438.30
2019-01-20T10:26:32.571Z,100433.59
2019-01-20T10:35:30.048Z,100439.67
2019-01-20T10:38:03.522Z,100442.07
2019-01-20T10:40:36.147Z,100440.87
2019-01-20T10:43:08.391Z,100436.17
2019-01-20T10:48:53.186Z,100434.16
2019-01-20T10:51:27.140Z,100432.66
2019-01-20T10:54:04.839Z,100429.77
2019-01-20T10:56:56.998Z,100431.03
2019-01-20T10:59:30.755Z,100433.22
2019-01-20T11:02:09.745Z,100431.22
2019-01-20T11:04:45.579Z,100438.47
2019-01-20T11:07:22.051Z,100436.16
2019-01-20T11:10:01.652Z,100438.53
2019-01-20T11:12:32.950Z,100444.78
2019-01-20T11:15:11.298Z,100440.99
2019-01-20T11:17:42.900Z,100440.19
2019-01-20T11:20:21.626Z,100448.81
2019-01-20T11:22:54.630Z,100449.27
2019-01-20T11:25:30.607Z,100440.08
2019-01-20T11:28:02.345Z,100439.23
2019-01-20T11:30:33.939Z,100434.28
2019-01-20T11:33:06.114Z,100431.33
2019-01-20T11:35:42.104Z,100432.92
2019-01-20T11:38:13.792Z,100439.12
2019-01-20T11:40:49.415Z,100434.81
2019-01-20T11:43:24.138Z,100432.73
2019-01-20T11:45:57.487Z,100436.97
2019-01-20T11:48:29.104Z,100432.70
2019-01-20T11:51:04.147Z,100434.38
2019-01-20T11:53:36.152Z,100434.98
2019-01-20T11:56:10.957Z,100437.52
2019-01-20T11:58:42.324Z,100437.03
2019-01-20T12:04:35.880Z,100435.49
2019-01-20T12:07:07.601Z,100438.69
2019-01-20T12:09:39.241Z,100434.33
2019-01-20T12:12:11.478Z,100437.91
2019-01-20T12:14:54.898Z,100432.41
2019-01-20T12:17:27.687Z,100429.65
2019-01-20T12:19:59.311Z,100433.87
2019-01-20T12:22:32.004Z,100428.75
2019-01-20T12:25:04.578Z,100431.19
2019-01-20T12:27:36.355Z,100428.19
2019-01-20T12:30:24.114Z,100425.51
2019-01-20T12:32:55.880Z,100424.70
2019-01-20T12:35:27.591Z,100424.53
2019-01-20T12:38:00.544Z,100429.73
2019-01-20T12:40:40.671Z,100431.52
2019-01-20T12:43:12.513Z,100420.14
2019-01-20T12:45:44.129Z,100422.23
2019-01-20T12:48:18.307Z,100420.75
2019-01-20T12:50:50.081Z,100419.16
2019-01-20T12:53:21.630Z,100421.06
2019-01-20T12:55:53.268Z,100418.80
2019-01-20T12:58:24.996Z,100418.58
2019-01-20T13:01:03.547Z,100419.02
2019-01-20T13:03:35.203Z,100421.48
2019-01-20T13:06:06.892Z,100413.93
2019-01-20T13:08:41.120Z,100418.98
2019-01-20T13:11:14.279Z,100418.23
2019-01-20T13:13:46.936Z,100423.19
2019-01-20T13:16:18.669Z,100420.55
2019-01-20T13:18:57.722Z,100415.60
2019-01-20T13:21:29.338Z,100417.57
2019-01-20T13:24:01.141Z,100416.02
2019-01-20T13:26:35.166Z,100421.92
2019-01-20T13:29:06.966Z,100414.09
2019-01-20T13:31:41.525Z,100413.81
2019-01-20T13:34:15.958Z,100418.90
2019-01-20T13:36:47.568Z,100417.28
2019-01-20T13:39:19.191Z,100416.70
2019-01-20T13:41:50.927Z,100417.25
2019-01-20T13:44:23.578Z,100412.94
2019-01-20T13:46:55.154Z,100419.16
2019-01-20T13:49:27.273Z,100422.52
2019-01-20T13:51:58.783Z,100419.98
2019-01-20T13:54:30.476Z,100427.30
2019-01-20T13:57:02.089Z,100423.40
2019-01-20T13:59:33.789Z,100417.80
2019-01-20T14:02:17.998Z,100429.87
2019-01-20T14:04:49.638Z,100424.79
2019-01-20T14:14:14.702Z,100435.59
2019-01-20T14:16:52.644Z,100438.35
2019-01-20T14:19:30.036Z,100438.61
2019-01-20T14:22:01.728Z,100438.23
2019-01-20T14:24:33.546Z,100436.64
2019-01-20T14:27:08.082Z,100445.59
2019-01-20T14:29:39.840Z,100436.33
2019-01-20T14:32:11.526Z,100441.28
2019-01-20T14:34:42.950Z,100440.31
2019-01-20T14:37:14.446Z,100445.54
2019-01-20T14:39:46.747Z,100444.73
2019-01-20T14:42:20.773Z,100443.20
2019-01-20T14:44:52.340Z,100449.22
2019-01-20T14:47:26.991Z,100450.84
2019-01-20T14:49:58.517Z,100450.18
2019-01-20T14:52:29.916Z,100456.45
2019-01-20T14:55:02.120Z,100458.31
2019-01-20T14:57:33.588Z,100454.01
2019-01-20T15:00:17.084Z,100452.06
2019-01-20T15:02:50.234Z,100456.88
2019-01-20T15:05:35.760Z,100463.38
2019-01-20T15:08:09.704Z,100459.25
2019-01-20T15:10:41.238Z,100465.27
2019-01-20T15:13:14.978Z,100469.57
2019-01-20T15:15:46.533Z,100473.30
2019-01-20T15:18:19.787Z,100465.75
2019-01-20T15:20:51.446Z,100476.16
2019-01-20T15:23:28.327Z,100479.48
2019-01-20T15:25:59.937Z,100476.89
2019-01-20T15:28:37.044Z,100469.66
2019-01-20T15:31:10.440Z,100476.17
2019-01-20T15:33:55.323Z,100471.67
2019-01-20T15:36:26.836Z,100478.25
2019-01-20T15:38:58.531Z,100480.77
2019-01-20T15:41:30.692Z,100480.95
2019-01-20T15:44:02.302Z,100486.30
2019-01-20T15:46:33.933Z,100491.67
2019-01-20T15:49:08.775Z,100489.80
2019-01-20T15:51:40.500Z,100491.11
2019-01-20T15:54:12.369Z,100494.52
2019-01-20T15:56:44.114Z,100501.58
2019-01-20T15:59:17.408Z,100496.70
2019-01-20T16:01:49.108Z,100501.17
2019-01-20T16:04:24.055Z,100501.09
2019-01-20T16:06:54.090Z,100507.42
2019-01-20T16:09:29.786Z,100506.28
2019-01-20T16:12:02.663Z,100508.30
2019-01-20T16:14:34.515Z,100509.12
2019-01-20T16:17:07.744Z,100508.05
2019-01-20T16:19:39.271Z,100513.00
2019-01-20T16:22:10.839Z,100515.92
2019-01-20T16:24:42.571Z,100520.38
2019-01-20T16:27:16.073Z,100522.63
2019-01-20T16:29:47.682Z,100524.08
2019-01-20T16:32:35.046Z,100521.72
2019-01-20T16:35:13.208Z,100530.55
2019-01-20T16:37:44.724Z,100529.40
2019-01-20T16:40:22.549Z,100538.14
2019-01-20T16:42:55.394Z,100545.17
2019-01-20T16:45:35.275Z,100542.31
2019-01-20T16:48:08.131Z,100550.56
2019-01-20T16:50:39.885Z,100548.82
2019-01-20T16:53:11.469Z,100556.92
2019-01-20T16:55:43.031Z,100558.32
2019-01-20T16:58:14.573Z,100564.85
2019-01-20T17:00:48.261Z,100570.75
2019-01-20T17:03:19.851Z,100564.49
2019-01-20T17:05:51.427Z,100572.98
2019-01-20T17:08:23.406Z,100567.31
2019-01-20T17:10:54.979Z,100569.81
2019-01-20T17:13:32.523Z,100571.83
2019-01-20T17:16:04.076Z,100577.01
2019-01-20T17:18:35.616Z,100580.23
2019-01-20T17:21:11.747Z,100580.53
2019-01-20T17:23:43.171Z,100582.95
2019-01-20T17:26:14.833Z,100586.84
2019-01-20T17:28:46.276Z,100588.23
2019-01-20T17:31:21.149Z,100592.92
2019-01-20T17:33:52.978Z,100588.14
2019-01-20T17:36:26.608Z,100594.03
2019-01-20T17:38:57.966Z,100596.13
2019-01-20T17:41:29.497Z,100602.13
2019-01-20T17:44:00.866Z,100608.20
2019-01-20T17:46:33.292Z,100605.52
2019-01-20T17:49:05.103Z,100607.30
2019-01-20T17:51:39.531Z,100611.91
2019-01-20T17:54:11.035Z,100612.31
2019-01-20T17:56:42.494Z,100613.82
2019-01-20T17:59:14.059Z,100614.72
2019-01-20T18:01:45.772Z,100618.20
2019-01-20T18:04:17.291Z,100622.49
2019-01-20T18:06:48.837Z,100621.41
2019-01-20T18:09:22.219Z,100623.33
2019-01-20T18:11:53.605Z,100629.22
2019-01-20T18:14:25.083Z,100633.20
2019-01-20T18:16:56.510Z,100632.52
2019-01-20T18:19:27.828Z,100634.03
2019-01-20T18:21:59.470Z,100638.93
2019-01-20T18:24:30.753Z,100634.85
2019-01-20T18:27:03.705Z,100637.44
2019-01-20T18:29:35.440Z,100642.53
2019-01-20T18:32:07.143Z,100644.13
2019-01-20T18:34:38.660Z,100643.94
2019-01-20T18:37:10.122Z,100638.47
2019-01-20T18:39:41.640Z,100648.65
2019-01-20T18:42:17.853Z,100651.23
2019-01-20T18:44:49.475Z,100656.72
2019-01-20T18:47:20.876Z,100663.11
2019-01-20T18:49:52.244Z,100659.62
2019-01-20T18:52:23.727Z,100662.61
2019-01-20T18:54:55.188Z,100664.52
2019-01-20T18:57:26.714Z,100672.19
2019-01-20T18:59:58.138Z,100663.23
2019-01-20T19:02:29.624Z,100669.70
2019-01-20T19:05:01.023Z,100676.38
2019-01-20T19:07:32.561Z,100680.17
2019-01-20T19:10:04.913Z,100673.20
2019-01-20T19:12:36.460Z,100673.50
2019-01-20T19:15:12.741Z,100678.38
2019-01-20T19:17:44.341Z,100678.88
2019-01-20T19:20:25.389Z,100683.77
2019-01-20T19:22:59.520Z,100684.77
2019-01-20T19:25:31.059Z,100687.45
2019-01-20T19:28:03.033Z,100690.95
2019-01-20T19:30:36.324Z,100694.23
2019-01-20T19:33:09.110Z,100688.45
2019-01-20T19:35:42.362Z,100689.02
2019-01-20T19:38:14.062Z,100696.48
2019-01-20T19:40:46.534Z,100698.88
2019-01-20T19:43:18.224Z,100702.47
2019-01-20T19:45:50.790Z,100701.56
2019-01-20T19:48:22.488Z,100706.24
2019-01-20T19:50:54.039Z,100708.13
2019-01-20T19:53:25.578Z,100714.20
2019-01-20T19:55:57.054Z,100718.08
2019-01-20T19:58:28.682Z,100720.97
2019-01-20T20:01:00.412Z,100718.97
2019-01-20T20:03:33.099Z,100723.05
2019-01-20T20:06:04.791Z,100722.15
2019-01-20T20:08:36.499Z,100720.36
2019-01-20T20:11:08.189Z,100727.72
2019-01-20T20:13:42.164Z,100736.58
2019-01-20T20:16:13.660Z,100735.47
2019-01-20T20:18:48.710Z,100741.73
2019-01-20T20:21:20.364Z,100735.56
2019-01-20T20:23:52.836Z,100743.80
2019-01-20T20:26:24.532Z,100744.09
2019-01-20T20:28:56.223Z,100744.50
2019-01-20T20:31:27.696Z,100753.84
2019-01-20T20:34:00.386Z,100747.69
2019-01-20T20:36:40.494Z,100752.17
2019-01-20T20:39:15.512Z,100759.03
2019-01-20T20:41:48.145Z,100759.43
2019-01-20T20:44:21.589Z,100761.02
2019-01-20T20:46:54.245Z,100760.52
2019-01-20T20:49:26.021Z,100766.98
2019-01-20T20:51:57.845Z,100772.55
2019-01-20T20:54:35.335Z,100771.66
2019-01-20T20:57:03.837Z,100769.45
2019-01-20T20:59:40.122Z,100772.64
2019-01-20T21:02:16.656Z,100774.02
2019-01-20T21:04:48.568Z,100776.39
2019-01-20T21:07:20.365Z,100775.89
2019-01-20T21:09:56.495Z,100784.75
2019-01-20T21:12:25.867Z,100781.85
2019-01-20T21:14:57.715Z,100786.52
2019-01-20T21:17:30.314Z,100789.19
2019-01-20T21:20:03.521Z,100791.95
2019-01-20T21:22:35.421Z,100795.94
2019-01-20T21:25:11.277Z,100797.70
2019-01-20T21:27:59.586Z,100799.58
2019-01-20T21:30:31.423Z,100798.97
2019-01-20T21:33:03.003Z,100803.13
2019-01-20T21:35:34.695Z,100808.20
2019-01-20T21:38:06.998Z,100807.41
2019-01-20T21:40:38.797Z,100808.88
2019-01-20T21:43:10.646Z,100813.87
2019-01-20T21:45:42.487Z,100812.75
2019-01-20T21:48:14.940Z,100815.30
2019-01-20T21:50:46.581Z,100814.80
2019-01-20T21:53:18.984Z,100815.77
2019-01-20T21:55:50.785Z,100825.59
2019-01-20T21:58:22.237Z,100826.17
2019-01-20T22:00:53.839Z,100828.25
2019-01-20T22:03:25.477Z,100830.51
2019-01-20T22:05:57.088Z,100835.45
2019-01-20T22:08:29.588Z,100838.50
2019-01-20T22:11:01.122Z,100843.55
2019-01-20T22:13:32.600Z,100844.13
2019-01-20T22:16:04.407Z,100846.31
2019-01-20T22:18:37.404Z,100843.90
2019-01-20T22:21:08.936Z,100843.25
2019-01-20T22:23:40.564Z,100848.02
2019-01-20T22:26:12.225Z,100847.52
2019-01-20T22:28:51.983Z,100848.19
2019-01-20T22:31:29.581Z,100852.74
2019-01-20T22:34:01.246Z,100858.80
2019-01-20T22:36:32.703Z,100857.91
2019-01-20T22:39:06.142Z,100859.31
2019-01-20T22:41:40.842Z,100861.50
2019-01-20T22:44:12.333Z,100864.77
2019-01-20T22:46:45.796Z,100866.05
2019-01-20T22:49:18.080Z,100867.84
2019-01-20T22:51:49.549Z,100859.38
2019-01-20T22:54:21.047Z,100861.45
2019-01-20T22:56:52.734Z,100865.83
2019-01-20T22:59:24.478Z,100866.33
2019-01-20T23:01:57.129Z,100873.19
2019-01-20T23:04:28.615Z,100874.76
2019-01-20T23:07:00.087Z,100879.42
2019-01-20T23:09:32.092Z,100877.51
2019-01-20T23:12:03.720Z,100875.03
2019-01-20T23:14:38.561Z,100880.48
2019-01-20T23:17:16.032Z,100882.78
2019-01-20T23:19:49.239Z,100878.91
2019-01-20T23:22:23.889Z,100881.77
2019-01-20T23:24:56.099Z,100882.17
2019-01-20T23:27:27.692Z,100877.39
2019-01-20T23:29:59.437Z,100880.26
2019-01-20T23:32:36.913Z,100884.52
2019-01-20T23:35:10.877Z,100885.42
2019-01-20T23:37:44.243Z,100884.92
2019-01-20T23:40:18.943Z,100888.67
2019-01-20T23:42:53.655Z,100887.16
2019-01-20T23:45:28.249Z,100885.47
2019-01-20T23:47:59.786Z,100889.00
2019-01-20T23:50:32.228Z,100890.19
2019-01-20T23:53:03.830Z,100892.38
2019-01-20T23:55:35.990Z,100889.41
2019-01-20T23:58:09.709Z,100888.61
